sensor_id;sensor_type;location;lat;lon;timestamp;pressure;altitude;pressure_sealevel;temperature;humidity
66196;BME280;53000;45.182;5.736;2022-10-17T00:00:22;99819.16;;;21.56;47.56
66196;BME280;53000;45.182;5.736;2022-10-17T00:05:16;99818.75;;;21.52;47.56
66196;BME280;53000;45.182;5.736;2022-10-17T00:07:41;99827.25;;;21.51;47.19
66196;BME280;53000;45.182;5.736;2022-10-17T00:10:09;99827.09;;;21.46;47.35
66196;BME280;53000;45.182;5.736;2022-10-17T00:12:37;99830.31;;;21.42;47.83
66196;BME280;53000;45.182;5.736;2022-10-17T00:15:07;99818.25;;;21.37;48.32
66196;BME280;53000;45.182;5.736;2022-10-17T00:17:35;99827.88;;;21.28;48.11
66196;BME280;53000;45.182;5.736;2022-10-17T00:20:03;99837.66;;;21.23;48.29
66196;BME280;53000;45.182;5.736;2022-10-17T00:22:30;99829.84;;;21.20;48.25
66196;BME280;53000;45.182;5.736;2022-10-17T00:24:55;99841.09;;;21.19;47.76
66196;BME280;53000;45.182;5.736;2022-10-17T00:27:21;99845.34;;;21.15;48.49
66196;BME280;53000;45.182;5.736;2022-10-17T00:29:50;99841.38;;;21.11;48.49
66196;BME280;53000;45.182;5.736;2022-10-17T00:32:16;99841.38;;;21.11;48.32
66196;BME280;53000;45.182;5.736;2022-10-17T00:34:42;99843.72;;;21.07;47.75
66196;BME280;53000;45.182;5.736;2022-10-17T00:37:08;99848.66;;;20.98;48.83
66196;BME280;53000;45.182;5.736;2022-10-17T00:39:36;99852.31;;;20.92;48.58
66196;BME280;53000;45.182;5.736;2022-10-17T00:42:01;99853.19;;;20.86;48.52
66196;BME280;53000;45.182;5.736;2022-10-17T00:47:08;99857.06;;;20.78;48.74
66196;BME280;53000;45.182;5.736;2022-10-17T00:49:38;99850.09;;;20.76;49.31
66196;BME280;53000;45.182;5.736;2022-10-17T00:52:17;99859.25;;;20.70;49.19
66196;BME280;53000;45.182;5.736;2022-10-17T00:54:52;99862.25;;;20.61;49.91
66196;BME280;53000;45.182;5.736;2022-10-17T00:57:18;99862.28;;;20.55;50.20
66196;BME280;53000;45.182;5.736;2022-10-17T00:59:49;99851.47;;;20.53;49.89
66196;BME280;53000;45.182;5.736;2022-10-17T01:02:17;99859.53;;;20.55;49.42
66196;BME280;53000;45.182;5.736;2022-10-17T01:04:48;99849.78;;;20.52;50.23
66196;BME280;53000;45.182;5.736;2022-10-17T01:07:14;99845.81;;;20.48;50.03
66196;BME280;53000;45.182;5.736;2022-10-17T01:09:40;99859.31;;;20.50;50.26
66196;BME280;53000;45.182;5.736;2022-10-17T01:12:24;99854.06;;;20.48;50.17
66196;BME280;53000;45.182;5.736;2022-10-17T01:26:01;99856.69;;;20.30;50.89
66196;BME280;53000;45.182;5.736;2022-10-17T01:29:26;99864.13;;;20.22;49.96
66196;BME280;53000;45.182;5.736;2022-10-17T01:31:51;99863.09;;;20.17;50.86
66196;BME280;53000;45.182;5.736;2022-10-17T01:34:32;99869.66;;;20.16;50.70
66196;BME280;53000;45.182;5.736;2022-10-17T01:39:51;99876.22;;;20.08;51.18
66196;BME280;53000;45.182;5.736;2022-10-17T01:44:51;99877.28;;;20.07;51.10
66196;BME280;53000;45.182;5.736;2022-10-17T01:47:31;99879.38;;;20.05;50.81
66196;BME280;53000;45.182;5.736;2022-10-17T01:50:03;99872.22;;;20.04;51.32
66196;BME280;53000;45.182;5.736;2022-10-17T01:52:55;99884.28;;;20.03;51.69
66196;BME280;53000;45.182;5.736;2022-10-17T01:55:27;99872.66;;;20.01;51.39
66196;BME280;53000;45.182;5.736;2022-10-17T01:58:00;99880.50;;;19.97;51.80
66196;BME280;53000;45.182;5.736;2022-10-17T02:00:29;99871.19;;;19.92;51.71
66196;BME280;53000;45.182;5.736;2022-10-17T02:02:59;99871.19;;;19.92;51.59
66196;BME280;53000;45.182;5.736;2022-10-17T02:05:30;99867.00;;;19.89;51.65
66196;BME280;53000;45.182;5.736;2022-10-17T02:08:01;99867.44;;;19.86;52.41
66196;BME280;53000;45.182;5.736;2022-10-17T02:10:43;99875.47;;;19.81;52.22
66196;BME280;53000;45.182;5.736;2022-10-17T02:13:37;99874.00;;;19.78;52.03
66196;BME280;53000;45.182;5.736;2022-10-17T02:21:37;99868.31;;;19.73;52.77
66196;BME280;53000;45.182;5.736;2022-10-17T02:24:18;99867.69;;;19.71;52.01
66196;BME280;53000;45.182;5.736;2022-10-17T02:26:59;99868.06;;;19.68;52.33
66196;BME280;53000;45.182;5.736;2022-10-17T02:29:33;99857.94;;;19.62;52.44
66196;BME280;53000;45.182;5.736;2022-10-17T02:32:13;99862.59;;;19.61;52.62
66196;BME280;53000;45.182;5.736;2022-10-17T02:34:47;99866.16;;;19.62;52.90
66196;BME280;53000;45.182;5.736;2022-10-17T02:37:18;99869.78;;;19.63;52.98
66196;BME280;53000;45.182;5.736;2022-10-17T02:39:49;99867.66;;;19.58;52.77
66196;BME280;53000;45.182;5.736;2022-10-17T02:42:15;99870.63;;;19.56;52.92
66196;BME280;53000;45.182;5.736;2022-10-17T02:44:43;99869.78;;;19.56;53.70
66196;BME280;53000;45.182;5.736;2022-10-17T02:47:20;99863.88;;;19.52;52.67
66196;BME280;53000;45.182;5.736;2022-10-17T02:49:50;99874.44;;;19.49;53.13
66196;BME280;53000;45.182;5.736;2022-10-17T02:52:24;99863.88;;;19.46;53.08
66196;BME280;53000;45.182;5.736;2022-10-17T02:55:05;99870.22;;;19.46;53.11
66196;BME280;53000;45.182;5.736;2022-10-17T02:57:43;99862.63;;;19.41;53.23
66196;BME280;53000;45.182;5.736;2022-10-17T03:00:14;99873.81;;;19.40;53.51
66196;BME280;53000;45.182;5.736;2022-10-17T03:02:46;99872.78;;;19.41;53.37
66196;BME280;53000;45.182;5.736;2022-10-17T03:05:17;99874.00;;;19.38;52.78
66196;BME280;53000;45.182;5.736;2022-10-17T03:07:43;99873.81;;;19.33;53.32
66196;BME280;53000;45.182;5.736;2022-10-17T03:10:11;99868.97;;;19.29;53.20
66196;BME280;53000;45.182;5.736;2022-10-17T03:12:37;99873.38;;;19.23;53.49
66196;BME280;53000;45.182;5.736;2022-10-17T03:15:03;99879.31;;;19.20;54.01
66196;BME280;53000;45.182;5.736;2022-10-17T03:17:31;99883.53;;;19.16;53.92
66196;BME280;53000;45.182;5.736;2022-10-17T03:19:56;99889.22;;;19.14;53.53
66196;BME280;53000;45.182;5.736;2022-10-17T03:22:21;99886.69;;;19.13;54.33
66196;BME280;53000;45.182;5.736;2022-10-17T03:24:54;99886.69;;;19.13;54.49
66196;BME280;53000;45.182;5.736;2022-10-17T03:27:21;99892.81;;;19.08;54.70
66196;BME280;53000;45.182;5.736;2022-10-17T03:29:47;99901.88;;;19.09;54.53
66196;BME280;53000;45.182;5.736;2022-10-17T03:32:12;99887.31;;;19.08;54.45
66196;BME280;53000;45.182;5.736;2022-10-17T03:34:40;99890.28;;;19.07;54.27
66196;BME280;53000;45.182;5.736;2022-10-17T03:37:05;99896.19;;;19.04;54.42
66196;BME280;53000;45.182;5.736;2022-10-17T03:39:31;99895.34;;;19.03;54.77
66196;BME280;53000;45.182;5.736;2022-10-17T03:41:56;99895.13;;;18.98;54.39
66196;BME280;53000;45.182;5.736;2022-10-17T03:44:21;99890.50;;;18.92;55.28
66196;BME280;53000;45.182;5.736;2022-10-17T03:46:49;99892.78;;;18.88;54.71
66196;BME280;53000;45.182;5.736;2022-10-17T03:49:14;99890.44;;;18.85;54.59
66196;BME280;53000;45.182;5.736;2022-10-17T03:51:42;99900.19;;;18.81;54.19
66196;BME280;53000;45.182;5.736;2022-10-17T03:54:10;99902.66;;;18.76;54.88
66196;BME280;53000;45.182;5.736;2022-10-17T03:56:35;99901.19;;;18.73;54.89
66196;BME280;53000;45.182;5.736;2022-10-17T03:59:05;99899.25;;;18.74;55.46
66196;BME280;53000;45.182;5.736;2022-10-17T04:01:30;99893.78;;;18.74;54.80
66196;BME280;53000;45.182;5.736;2022-10-17T04:03:56;99892.31;;;18.71;55.33
66196;BME280;53000;45.182;5.736;2022-10-17T04:06:22;99906.84;;;18.72;56.02
66196;BME280;53000;45.182;5.736;2022-10-17T04:08:50;99899.25;;;18.67;55.17
66196;BME280;53000;45.182;5.736;2022-10-17T04:11:19;99911.06;;;18.68;55.22
66196;BME280;53000;45.182;5.736;2022-10-17T04:13:45;99910.03;;;18.69;54.75
66196;BME280;53000;45.182;5.736;2022-10-17T04:16:13;99913.16;;;18.66;55.20
66196;BME280;53000;45.182;5.736;2022-10-17T04:18:40;99909.78;;;18.64;55.33
66196;BME280;53000;45.182;5.736;2022-10-17T04:21:06;99923.09;;;18.60;55.59
66196;BME280;53000;45.182;5.736;2022-10-17T04:23:32;99923.06;;;18.53;55.61
66196;BME280;53000;45.182;5.736;2022-10-17T04:25:59;99926.63;;;18.54;55.96
66196;BME280;53000;45.182;5.736;2022-10-17T04:28:26;99932.97;;;18.54;56.04
66196;BME280;53000;45.182;5.736;2022-10-17T04:30:59;99926.63;;;18.54;55.58
66196;BME280;53000;45.182;5.736;2022-10-17T04:33:24;99935.06;;;18.52;56.01
66196;BME280;53000;45.182;5.736;2022-10-17T04:35:57;99935.91;;;18.53;56.08
66196;BME280;53000;45.182;5.736;2022-10-17T04:38:23;99931.47;;;18.52;55.85
66196;BME280;53000;45.182;5.736;2022-10-17T04:40:51;99936.13;;;18.51;56.02
66196;BME280;53000;45.182;5.736;2022-10-17T04:43:19;99933.59;;;18.50;56.21
66196;BME280;53000;45.182;5.736;2022-10-17T04:45:45;99940.53;;;18.46;56.31
66196;BME280;53000;45.182;5.736;2022-10-17T04:48:13;99944.53;;;18.43;56.36
66196;BME280;53000;45.182;5.736;2022-10-17T04:50:41;99945.56;;;18.42;56.58
66196;BME280;53000;45.182;5.736;2022-10-17T04:53:09;99953.59;;;18.44;56.73
66196;BME280;53000;45.182;5.736;2022-10-17T04:55:37;99954.66;;;18.43;56.93
66196;BME280;53000;45.182;5.736;2022-10-17T04:58:05;99942.19;;;18.40;56.43
66196;BME280;53000;45.182;5.736;2022-10-17T05:00:31;99947.00;;;18.38;56.34
66196;BME280;53000;45.182;5.736;2022-10-17T05:02:58;99948.72;;;18.39;56.81
66196;BME280;53000;45.182;5.736;2022-10-17T05:05:24;99954.19;;;18.39;56.87
66196;BME280;53000;45.182;5.736;2022-10-17T05:07:49;99957.13;;;18.37;56.13
66196;BME280;53000;45.182;5.736;2022-10-17T05:10:17;99966.81;;;18.33;56.95
66196;BME280;53000;45.182;5.736;2022-10-17T05:12:50;99961.56;;;18.32;56.18
66196;BME280;53000;45.182;5.736;2022-10-17T05:15:15;99968.72;;;18.33;56.91
66196;BME280;53000;45.182;5.736;2022-10-17T05:17:41;99961.94;;;18.29;56.70
66196;BME280;53000;45.182;5.736;2022-10-17T05:20:07;99960.47;;;18.26;56.76
66196;BME280;53000;45.182;5.736;2022-10-17T05:22:35;99967.22;;;18.24;56.44
66196;BME280;53000;45.182;5.736;2022-10-17T05:25:05;99960.88;;;18.23;56.27
66196;BME280;53000;45.182;5.736;2022-10-17T05:27:31;99960.00;;;18.23;57.04
66196;BME280;53000;45.182;5.736;2022-10-17T05:29:57;99968.22;;;18.23;56.95
66196;BME280;53000;45.182;5.736;2022-10-17T05:32:22;99974.59;;;18.23;56.97
66196;BME280;53000;45.182;5.736;2022-10-17T05:34:47;99974.97;;;18.20;57.36
66196;BME280;53000;45.182;5.736;2022-10-17T05:37:13;99976.88;;;18.19;57.10
66196;BME280;53000;45.182;5.736;2022-10-17T05:39:38;99976.22;;;18.17;57.58
66196;BME280;53000;45.182;5.736;2022-10-17T05:42:11;99979.34;;;18.14;57.44
66196;BME280;53000;45.182;5.736;2022-10-17T05:44:36;99990.72;;;18.11;57.48
66196;BME280;53000;45.182;5.736;2022-10-17T05:47:04;99992.81;;;18.09;57.53
66196;BME280;53000;45.182;5.736;2022-10-17T05:49:36;99989.44;;;18.07;57.45
66196;BME280;53000;45.182;5.736;2022-10-17T05:52:04;99978.66;;;18.06;57.41
66196;BME280;53000;45.182;5.736;2022-10-17T05:54:29;99973.19;;;18.06;57.48
66196;BME280;53000;45.182;5.736;2022-10-17T05:56:55;99982.47;;;18.05;57.21
66196;BME280;53000;45.182;5.736;2022-10-17T05:59:20;99993.63;;;18.03;57.70
66196;BME280;53000;45.182;5.736;2022-10-17T06:01:49;99999.28;;;18.02;57.40
66196;BME280;53000;45.182;5.736;2022-10-17T06:04:14;100002.69;;;18.04;58.03
66196;BME280;53000;45.182;5.736;2022-10-17T06:06:42;100013.63;;;18.04;57.41
66196;BME280;53000;45.182;5.736;2022-10-17T06:09:10;100010.06;;;18.03;57.43
66196;BME280;53000;45.182;5.736;2022-10-17T06:11:35;100018.94;;;18.05;57.67
66196;BME280;53000;45.182;5.736;2022-10-17T06:14:01;100020.63;;;18.06;57.54
66196;BME280;53000;45.182;5.736;2022-10-17T06:16:29;100024.16;;;18.00;58.02
66196;BME280;53000;45.182;5.736;2022-10-17T06:18:54;100037.59;;;17.95;57.63
66196;BME280;53000;45.182;5.736;2022-10-17T06:21:25;100034.22;;;17.93;57.56
66196;BME280;53000;45.182;5.736;2022-10-17T06:23:51;100035.28;;;17.92;57.75
66196;BME280;53000;45.182;5.736;2022-10-17T06:26:19;100050.44;;;17.94;57.41
66196;BME280;53000;45.182;5.736;2022-10-17T06:28:44;100050.66;;;17.93;58.30
66196;BME280;53000;45.182;5.736;2022-10-17T06:31:14;100051.06;;;17.90;57.62
66196;BME280;53000;45.182;5.736;2022-10-17T06:33:39;100051.66;;;17.85;57.24
66196;BME280;53000;45.182;5.736;2022-10-17T06:36:11;100060.25;;;17.82;57.57
66196;BME280;53000;45.182;5.736;2022-10-17T06:38:40;100068.66;;;17.81;58.05
66196;BME280;53000;45.182;5.736;2022-10-17T06:41:13;100068.47;;;17.82;58.35
66196;BME280;53000;45.182;5.736;2022-10-17T06:43:42;100067.91;;;17.87;57.65
66196;BME280;53000;45.182;5.736;2022-10-17T06:46:18;100076.34;;;17.92;58.34
66196;BME280;53000;45.182;5.736;2022-10-17T06:48:43;100075.94;;;17.95;58.48
66196;BME280;53000;45.182;5.736;2022-10-17T06:51:09;100084.63;;;17.98;58.46
66196;BME280;53000;45.182;5.736;2022-10-17T06:53:40;100088.47;;;18.04;58.16
66196;BME280;53000;45.182;5.736;2022-10-17T06:56:13;100092.28;;;18.10;58.10
66196;BME280;53000;45.182;5.736;2022-10-17T06:58:39;100088.75;;;18.16;57.96
66196;BME280;53000;45.182;5.736;2022-10-17T07:01:07;100093.44;;;18.22;57.81
66196;BME280;53000;45.182;5.736;2022-10-17T07:03:35;100100.03;;;18.28;57.64
66196;BME280;53000;45.182;5.736;2022-10-17T07:06:01;100104.06;;;18.32;57.25
66196;BME280;53000;45.182;5.736;2022-10-17T07:08:29;100104.50;;;18.35;57.44
66196;BME280;53000;45.182;5.736;2022-10-17T07:10:55;100110.03;;;18.42;57.27
66196;BME280;53000;45.182;5.736;2022-10-17T07:13:23;100109.44;;;18.47;57.03
66196;BME280;53000;45.182;5.736;2022-10-17T07:15:53;100110.53;;;18.52;57.05
66196;BME280;53000;45.182;5.736;2022-10-17T07:18:24;100115.19;;;18.58;56.71
66196;BME280;53000;45.182;5.736;2022-10-17T07:20:53;100115.66;;;18.62;56.73
66196;BME280;53000;45.182;5.736;2022-10-17T07:23:19;100122.22;;;18.68;57.01
66196;BME280;53000;45.182;5.736;2022-10-17T07:25:44;100126.47;;;18.70;56.80
66196;BME280;53000;45.182;5.736;2022-10-17T07:28:13;100116.75;;;18.74;56.80
66196;BME280;53000;45.182;5.736;2022-10-17T07:30:41;100117.69;;;18.82;56.65
66196;BME280;53000;45.182;5.736;2022-10-17T07:33:07;100126.16;;;18.87;55.93
66196;BME280;53000;45.182;5.736;2022-10-17T07:35:36;100131.66;;;18.93;56.37
66196;BME280;53000;45.182;5.736;2022-10-17T07:38:01;100141.84;;;18.99;56.63
66196;BME280;53000;45.182;5.736;2022-10-17T07:40:27;100135.72;;;19.04;56.34
66196;BME280;53000;45.182;5.736;2022-10-17T07:42:54;100124.34;;;19.00;56.08
66196;BME280;53000;45.182;5.736;2022-10-17T07:45:23;100147.00;;;19.16;56.20
66196;BME280;53000;45.182;5.736;2022-10-17T07:47:54;100144.50;;;19.28;55.86
66196;BME280;53000;45.182;5.736;2022-10-17T07:50:30;100147.69;;;19.38;55.68
66196;BME280;53000;45.182;5.736;2022-10-17T07:52:57;100151.94;;;19.47;55.54
66196;BME280;53000;45.182;5.736;2022-10-17T07:55:22;100144.41;;;19.56;55.31
66196;BME280;53000;45.182;5.736;2022-10-17T07:57:47;100146.09;;;19.64;55.16
66196;BME280;53000;45.182;5.736;2022-10-17T08:00:15;100154.53;;;19.69;55.01
66196;BME280;53000;45.182;5.736;2022-10-17T08:02:43;100151.88;;;19.75;54.65
66196;BME280;53000;45.182;5.736;2022-10-17T08:05:08;100154.84;;;19.87;54.73
66196;BME280;53000;45.182;5.736;2022-10-17T08:07:36;100156.13;;;19.98;54.45
66196;BME280;53000;45.182;5.736;2022-10-17T08:10:07;100157.38;;;20.09;54.07
66196;BME280;53000;45.182;5.736;2022-10-17T08:12:34;100152.34;;;20.19;54.20
66196;BME280;53000;45.182;5.736;2022-10-17T08:15:00;100153.41;;;20.31;53.95
66196;BME280;53000;45.182;5.736;2022-10-17T08:17:28;100147.69;;;20.39;53.48
66196;BME280;53000;45.182;5.736;2022-10-17T08:20:05;100137.31;;;20.48;53.49
66196;BME280;53000;45.182;5.736;2022-10-17T08:22:31;100148.72;;;20.58;52.71
66196;BME280;53000;45.182;5.736;2022-10-17T08:25:00;100153.38;;;20.71;52.75
66196;BME280;53000;45.182;5.736;2022-10-17T08:27:26;100151.66;;;20.83;51.79
66196;BME280;53000;45.182;5.736;2022-10-17T08:29:53;100147.81;;;20.98;51.65
66196;BME280;53000;45.182;5.736;2022-10-17T08:32:24;100150.22;;;21.33;51.99
66196;BME280;53000;45.182;5.736;2022-10-17T08:34:51;100141.53;;;22.06;50.26
66196;BME280;53000;45.182;5.736;2022-10-17T08:37:21;100139.84;;;22.99;50.00
66196;BME280;53000;45.182;5.736;2022-10-17T08:39:48;100148.28;;;24.01;48.23
66196;BME280;53000;45.182;5.736;2022-10-17T08:47:41;100145.94;;;27.38;45.29
66196;BME280;53000;45.182;5.736;2022-10-17T08:53:05;100144.59;;;28.91;41.35
66196;BME280;53000;45.182;5.736;2022-10-17T08:55:41;100136.59;;;29.63;38.52
66196;BME280;53000;45.182;5.736;2022-10-17T08:58:22;100137.25;;;30.42;38.87
66196;BME280;53000;45.182;5.736;2022-10-17T09:09:59;100139.59;;;32.59;34.77
66196;BME280;53000;45.182;5.736;2022-10-17T09:13:36;100140.94;;;32.91;34.87
66196;BME280;53000;45.182;5.736;2022-10-17T09:18:33;100130.50;;;33.45;32.33
66196;BME280;53000;45.182;5.736;2022-10-17T09:23:39;100125.75;;;33.65;32.79
66196;BME280;53000;45.182;5.736;2022-10-17T09:26:11;100118.25;;;33.79;31.70
66196;BME280;53000;45.182;5.736;2022-10-17T09:28:39;100122.66;;;33.85;31.16
66196;BME280;53000;45.182;5.736;2022-10-17T09:33:47;100126.97;;;34.15;28.60
66196;BME280;53000;45.182;5.736;2022-10-17T09:36:26;100121.19;;;34.07;31.03
66196;BME280;53000;45.182;5.736;2022-10-17T09:39:04;100119.66;;;33.95;30.37
66196;BME280;53000;45.182;5.736;2022-10-17T09:41:43;100117.63;;;33.82;31.11
66196;BME280;53000;45.182;5.736;2022-10-17T09:44:34;100122.72;;;33.99;30.92
66196;BME280;53000;45.182;5.736;2022-10-17T09:49:53;100118.13;;;34.41;29.79
66196;BME280;53000;45.182;5.736;2022-10-17T09:52:29;100123.34;;;34.61;29.41
66196;BME280;53000;45.182;5.736;2022-10-17T09:55:04;100121.00;;;34.82;29.07
66196;BME280;53000;45.182;5.736;2022-10-17T10:00:48;100110.91;;;35.51;28.98
66196;BME280;53000;45.182;5.736;2022-10-17T10:03:20;100105.13;;;35.56;25.69
66196;BME280;53000;45.182;5.736;2022-10-17T10:06:12;100104.50;;;35.59;27.02
66196;BME280;53000;45.182;5.736;2022-10-17T10:08:58;100099.41;;;35.61;27.57
66196;BME280;53000;45.182;5.736;2022-10-17T10:11:25;100095.53;;;35.71;27.55
66196;BME280;53000;45.182;5.736;2022-10-17T10:14:19;100091.00;;;35.83;27.80
66196;BME280;53000;45.182;5.736;2022-10-17T10:16:47;100094.59;;;35.98;27.62
66196;BME280;53000;45.182;5.736;2022-10-17T10:21:57;100080.97;;;36.14;26.57
66196;BME280;53000;45.182;5.736;2022-10-17T10:24:23;100103.91;;;36.21;26.14
66196;BME280;53000;45.182;5.736;2022-10-17T10:26:54;100080.34;;;36.17;24.08
66196;BME280;53000;45.182;5.736;2022-10-17T10:29:35;100101.00;;;36.12;26.40
66196;BME280;53000;45.182;5.736;2022-10-17T10:32:24;100089.06;;;35.93;26.54
66196;BME280;53000;45.182;5.736;2022-10-17T10:35:07;100091.13;;;35.78;27.24
66196;BME280;53000;45.182;5.736;2022-10-17T10:37:53;100089.28;;;35.74;27.56
66196;BME280;53000;45.182;5.736;2022-10-17T10:40:25;100092.09;;;35.74;27.51
66196;BME280;53000;45.182;5.736;2022-10-17T10:43:04;100086.38;;;35.65;26.91
66196;BME280;53000;45.182;5.736;2022-10-17T10:51:01;100087.91;;;35.71;27.15
66196;BME280;53000;45.182;5.736;2022-10-17T10:53:44;100084.28;;;35.57;27.18
66196;BME280;53000;45.182;5.736;2022-10-17T10:59:19;100076.44;;;35.31;28.16
66196;BME280;53000;45.182;5.736;2022-10-17T11:01:57;100071.09;;;35.30;28.16
66196;BME280;53000;45.182;5.736;2022-10-17T11:07:28;100074.94;;;35.34;28.20
66196;BME280;53000;45.182;5.736;2022-10-17T11:12:56;100060.50;;;35.27;27.71
66196;BME280;53000;45.182;5.736;2022-10-17T11:18:22;100066.53;;;35.56;27.36
66196;BME280;53000;45.182;5.736;2022-10-17T11:23:57;100067.66;;;35.69;27.45
66196;BME280;53000;45.182;5.736;2022-10-17T11:26:28;100059.56;;;35.68;26.35
66196;BME280;53000;45.182;5.736;2022-10-17T11:28:59;100060.69;;;35.67;27.09
66196;BME280;53000;45.182;5.736;2022-10-17T11:31:41;100044.31;;;35.69;24.85
66196;BME280;53000;45.182;5.736;2022-10-17T11:34:17;100050.47;;;35.71;26.13
66196;BME280;53000;45.182;5.736;2022-10-17T11:36:47;100041.41;;;35.74;26.45
66196;BME280;53000;45.182;5.736;2022-10-17T11:39:21;100042.91;;;35.80;26.19
66196;BME280;53000;45.182;5.736;2022-10-17T11:42:06;100037.94;;;35.77;26.46
66196;BME280;53000;45.182;5.736;2022-10-17T11:47:19;100035.78;;;35.60;26.38
66196;BME280;53000;45.182;5.736;2022-10-17T11:49:52;100036.00;;;35.50;26.29
66196;BME280;53000;45.182;5.736;2022-10-17T11:55:08;100021.47;;;35.34;26.49
66196;BME280;53000;45.182;5.736;2022-10-17T11:57:44;100031.50;;;35.26;26.59
66196;BME280;53000;45.182;5.736;2022-10-17T12:03:16;100019.94;;;34.58;27.19
66196;BME280;53000;45.182;5.736;2022-10-17T12:08:35;100019.22;;;33.73;27.73
66196;BME280;53000;45.182;5.736;2022-10-17T12:11:09;100016.03;;;33.42;27.88
66196;BME280;53000;45.182;5.736;2022-10-17T12:21:56;100006.84;;;33.55;28.36
66196;BME280;53000;45.182;5.736;2022-10-17T12:24:38;100001.75;;;33.76;28.34
66196;BME280;53000;45.182;5.736;2022-10-17T12:33:24;99986.66;;;34.05;28.36
66196;BME280;53000;45.182;5.736;2022-10-17T12:49:20;99957.69;;;34.24;28.04
66196;BME280;53000;45.182;5.736;2022-10-17T12:55:12;99964.31;;;34.14;27.92
66196;BME280;53000;45.182;5.736;2022-10-17T12:58:17;99959.38;;;34.06;28.26
66196;BME280;53000;45.182;5.736;2022-10-17T13:03:22;99956.03;;;33.90;28.63
66196;BME280;53000;45.182;5.736;2022-10-17T13:05:54;99952.78;;;33.83;27.87
66196;BME280;53000;45.182;5.736;2022-10-17T13:08:23;99945.69;;;33.52;28.33
66196;BME280;53000;45.182;5.736;2022-10-17T13:10:51;99947.31;;;33.39;28.56
66196;BME280;53000;45.182;5.736;2022-10-17T13:13:24;99951.13;;;33.11;28.73
66196;BME280;53000;45.182;5.736;2022-10-17T13:15:52;99946.09;;;32.89;29.05
66196;BME280;53000;45.182;5.736;2022-10-17T13:18:38;99948.44;;;32.82;28.96
66196;BME280;53000;45.182;5.736;2022-10-17T13:21:12;99947.59;;;32.81;29.11
66196;BME280;53000;45.182;5.736;2022-10-17T13:23:38;99933.78;;;32.66;28.94
66196;BME280;53000;45.182;5.736;2022-10-17T13:26:13;99944.84;;;32.52;29.65
66196;BME280;53000;45.182;5.736;2022-10-17T13:28:42;99948.28;;;32.49;28.75
66196;BME280;53000;45.182;5.736;2022-10-17T13:31:33;99937.88;;;32.49;28.71
66196;BME280;53000;45.182;5.736;2022-10-17T13:34:01;99937.59;;;32.51;29.13
66196;BME280;53000;45.182;5.736;2022-10-17T13:36:28;99930.63;;;32.48;29.16
66196;BME280;53000;45.182;5.736;2022-10-17T13:38:56;99922.59;;;32.42;29.66
66196;BME280;53000;45.182;5.736;2022-10-17T13:41:26;99922.63;;;32.36;29.87
66196;BME280;53000;45.182;5.736;2022-10-17T13:43:53;99925.69;;;32.40;29.72
66196;BME280;53000;45.182;5.736;2022-10-17T13:46:31;99915.59;;;32.39;29.43
66196;BME280;53000;45.182;5.736;2022-10-17T13:48:58;99911.72;;;32.35;29.36
66196;BME280;53000;45.182;5.736;2022-10-17T13:51:27;99925.50;;;32.31;29.72
66196;BME280;53000;45.182;5.736;2022-10-17T13:53:57;99928.25;;;32.36;29.11
66196;BME280;53000;45.182;5.736;2022-10-17T13:56:24;99927.25;;;32.27;29.57
66196;BME280;53000;45.182;5.736;2022-10-17T13:58:58;99927.59;;;32.21;29.86
66196;BME280;53000;45.182;5.736;2022-10-17T14:01:28;99922.72;;;32.07;30.26
66196;BME280;53000;45.182;5.736;2022-10-17T14:03:54;99918.63;;;31.94;30.43
66196;BME280;53000;45.182;5.736;2022-10-17T14:06:23;99910.91;;;31.81;30.79
66196;BME280;53000;45.182;5.736;2022-10-17T14:09:02;99924.78;;;31.62;31.29
66196;BME280;53000;45.182;5.736;2022-10-17T14:14:05;99927.81;;;31.36;31.43
66196;BME280;53000;45.182;5.736;2022-10-17T14:16:39;99930.47;;;31.17;31.64
66196;BME280;53000;45.182;5.736;2022-10-17T14:19:25;99929.44;;;31.03;32.19
66196;BME280;53000;45.182;5.736;2022-10-17T14:21:55;99932.56;;;30.91;31.85
66196;BME280;53000;45.182;5.736;2022-10-17T14:26:51;99937.09;;;30.72;32.73
66196;BME280;53000;45.182;5.736;2022-10-17T14:29:48;99932.97;;;30.59;32.57
66196;BME280;53000;45.182;5.736;2022-10-17T14:32:28;99937.84;;;30.38;33.06
66196;BME280;53000;45.182;5.736;2022-10-17T14:35:00;99935.91;;;30.23;32.99
66196;BME280;53000;45.182;5.736;2022-10-17T14:40:15;99928.16;;;30.00;33.44
66196;BME280;53000;45.182;5.736;2022-10-17T14:42:41;99936.81;;;29.93;34.09
66196;BME280;53000;45.182;5.736;2022-10-17T14:45:24;99942.94;;;29.90;33.78
66196;BME280;53000;45.182;5.736;2022-10-17T14:47:53;99943.53;;;29.76;34.02
66196;BME280;53000;45.182;5.736;2022-10-17T14:50:27;99944.91;;;29.64;34.27
66196;BME280;53000;45.182;5.736;2022-10-17T14:53:20;99962.19;;;29.45;34.96
66196;BME280;53000;45.182;5.736;2022-10-17T14:56:01;99964.66;;;29.26;35.19
66196;BME280;53000;45.182;5.736;2022-10-17T14:58:31;99962.41;;;29.08;35.50
66196;BME280;53000;45.182;5.736;2022-10-17T15:01:02;99959.28;;;28.89;35.84
66196;BME280;53000;45.182;5.736;2022-10-17T15:03:30;99970.91;;;28.70;36.75
66196;BME280;53000;45.182;5.736;2022-10-17T15:05:55;99978.94;;;28.57;36.92
66196;BME280;53000;45.182;5.736;2022-10-17T15:08:23;99967.47;;;28.48;36.85
66196;BME280;53000;45.182;5.736;2022-10-17T15:10:56;99957.66;;;28.35;37.61
66196;BME280;53000;45.182;5.736;2022-10-17T15:13:22;99964.03;;;28.30;37.40
66196;BME280;53000;45.182;5.736;2022-10-17T15:15:50;99959.81;;;28.28;37.03
66196;BME280;53000;45.182;5.736;2022-10-17T15:18:18;99971.25;;;28.26;36.84
66196;BME280;53000;45.182;5.736;2022-10-17T15:20:44;99981.56;;;28.26;37.40
66196;BME280;53000;45.182;5.736;2022-10-17T15:23:17;99980.13;;;28.23;37.18
66196;BME280;53000;45.182;5.736;2022-10-17T15:25:43;99982.00;;;28.12;37.63
66196;BME280;53000;45.182;5.736;2022-10-17T15:28:11;99986.38;;;27.98;38.03